메인 페이지
METAR-TAF:

METAR-TAF

공항 :

Fort Sill, 오클라호마, 미국

위도: 34-36N, 경도: 098-24W, 고도: 362m

현재 날씨관측

예보는 36분 전, 02:56시(UTC)에 발표되었습니다.
남남서4kt
온도 10°C
습도 66%
기압 1016 hPa
시정: 16.1km
맑음

METAR: KFSI 170256Z AUTO 20004KT 10SM CLR 10/04 A2999 RMK AO2 SLP155 T01040041 52003

시각: 21:32 (03:32 UTC)

예보

예보는 5 시간 32분 전, 22:00시(UTC)에 발표되었습니다.
예보 대상 시간: 16일 22시부터 18일 04시까지 (UTC)
9kt
시정 10km 이상
고도 25000ft 상공 구름 보통
전환 중
17일 17시부터 17일 18시까지 (UTC)
북북서6kt
시정 10km 이상
고도 3000ft 상공 구름 조금
고도 20000ft 상공 구름 많음
전환 중
17일 20시부터 17일 21시까지 (UTC)
12kt, 순간 최대 풍속 18kt
시정: 1914m
고도 2500ft 상공 구름 많음

TAF: KFSI 162200Z 1622/1804 18009KT 9999 SCT250 QNH2998INS BECMG 1717/1718 34006KT 9999 FEW030 BKN200 QNH3005INS BECMG 1720/1721 01012G18KT 9999 BKN025 520104 QNH3007INS TX19/1622Z TN00/1711Z LAST NO AMDS AFT 1700 NEXT 1914

4,000개 이상의 공항 관측 자료 및 예보 (METAR 및 TAF 보고).

지도상에서 검색 가능한 기상관측소가 노란 점과 빨간 점으로 표시되어 있습니다.

기상관측소 명을 보려면 표시 위로 마우스를 이동하세요.

날씨 관측과 예보를 보려면 클릭하세요.

지도 변경 : 확대하려면 엑스 표시가 있는 녹색 버튼, 축소하려면 빼기 표시가 있는 녹색 버튼, 다음 페이지의 지도를 보려면 녹색 화살표를 클릭하세요.


METAR-TAF: